Weather at Ecuvillens Airport

Public forecast

Using degrees Celsius for public forecast. Weather courtesy of forecast.io.

Closest aviation weather report (METAR) to Ecuvillens Airport

Closest report is Payerne Air Base, 8.5 nm (15.7 km) NW. Retrieved 2021/11/27 14:20 UTC (20 minutes ago):

LSMP 271420Z AUTO 26010KT 9999NDV FEW047 05/M02 Q0994 RMK

Closest aviation forecast (TAF) to Ecuvillens Airport

Closest forecast is Payerne Air Base, 8.5 nm (15.7 km) NW. Retrieved 2021/11/27 10:00 UTC (5 hours ago):

TAF LSMP 270925Z 2710/2816 23010KT 9999 FEW020 SCT050 TEMPO 2710/2715 23015G25KT PROB30 TEMPO 2720/2801 3000 SHSN BKN014 TEMPO 2807/2816 3000 SHSN BKN014